sensor_id;sensor_type;location;lat;lon;timestamp;temperature;humidity
3194;DHT22;1608;50.860;13.466;2023-04-06T00:00:49;2.40;96.60
3194;DHT22;1608;50.860;13.466;2023-04-06T00:03:16;2.50;96.70
3194;DHT22;1608;50.860;13.466;2023-04-06T00:05:46;2.40;96.80
3194;DHT22;1608;50.860;13.466;2023-04-06T00:08:13;2.40;96.90
3194;DHT22;1608;50.860;13.466;2023-04-06T00:10:40;2.40;97.00
3194;DHT22;1608;50.860;13.466;2023-04-06T00:13:07;2.30;97.30
3194;DHT22;1608;50.860;13.466;2023-04-06T00:15:34;2.30;97.30
3194;DHT22;1608;50.860;13.466;2023-04-06T00:18:02;2.30;97.30
3194;DHT22;1608;50.860;13.466;2023-04-06T00:20:29;2.30;97.40
3194;DHT22;1608;50.860;13.466;2023-04-06T00:22:57;2.30;97.50
3194;DHT22;1608;50.860;13.466;2023-04-06T00:25:24;2.30;97.70
3194;DHT22;1608;50.860;13.466;2023-04-06T00:27:51;2.30;97.80
3194;DHT22;1608;50.860;13.466;2023-04-06T00:30:18;2.40;97.80
3194;DHT22;1608;50.860;13.466;2023-04-06T00:32:45;2.40;97.80
3194;DHT22;1608;50.860;13.466;2023-04-06T00:35:12;2.50;97.80
3194;DHT22;1608;50.860;13.466;2023-04-06T00:37:40;2.60;97.70
3194;DHT22;1608;50.860;13.466;2023-04-06T00:40:10;2.70;97.70
3194;DHT22;1608;50.860;13.466;2023-04-06T00:42:37;2.70;97.60
3194;DHT22;1608;50.860;13.466;2023-04-06T00:45:04;2.80;97.60
3194;DHT22;1608;50.860;13.466;2023-04-06T00:47:32;2.80;97.30
3194;DHT22;1608;50.860;13.466;2023-04-06T00:49:59;2.70;97.40
3194;DHT22;1608;50.860;13.466;2023-04-06T00:52:26;2.70;97.70
3194;DHT22;1608;50.860;13.466;2023-04-06T00:54:53;2.60;97.70
3194;DHT22;1608;50.860;13.466;2023-04-06T00:57:21;2.60;97.70
3194;DHT22;1608;50.860;13.466;2023-04-06T00:59:48;2.60;97.80
3194;DHT22;1608;50.860;13.466;2023-04-06T01:02:15;2.60;97.80
3194;DHT22;1608;50.860;13.466;2023-04-06T01:04:42;2.60;97.80
3194;DHT22;1608;50.860;13.466;2023-04-06T01:07:09;2.70;97.90
3194;DHT22;1608;50.860;13.466;2023-04-06T01:09:36;2.50;98.00
3194;DHT22;1608;50.860;13.466;2023-04-06T01:12:03;2.60;98.20
3194;DHT22;1608;50.860;13.466;2023-04-06T01:14:31;2.60;98.20
3194;DHT22;1608;50.860;13.466;2023-04-06T01:16:59;2.80;98.20
3194;DHT22;1608;50.860;13.466;2023-04-06T01:19:27;2.90;98.90
3194;DHT22;1608;50.860;13.466;2023-04-06T01:21:54;2.90;98.00
3194;DHT22;1608;50.860;13.466;2023-04-06T01:24:22;3.00;98.00
3194;DHT22;1608;50.860;13.466;2023-04-06T01:26:49;3.10;97.80
3194;DHT22;1608;50.860;13.466;2023-04-06T01:29:16;3.10;97.70
3194;DHT22;1608;50.860;13.466;2023-04-06T01:31:43;3.10;97.90
3194;DHT22;1608;50.860;13.466;2023-04-06T01:34:10;3.20;97.90
3194;DHT22;1608;50.860;13.466;2023-04-06T01:36:37;3.20;97.70
3194;DHT22;1608;50.860;13.466;2023-04-06T01:39:04;3.30;97.70
3194;DHT22;1608;50.860;13.466;2023-04-06T01:41:32;3.30;97.70
3194;DHT22;1608;50.860;13.466;2023-04-06T01:43:59;3.30;97.80
3194;DHT22;1608;50.860;13.466;2023-04-06T01:46:26;3.50;97.90
3194;DHT22;1608;50.860;13.466;2023-04-06T01:48:53;3.40;97.90
3194;DHT22;1608;50.860;13.466;2023-04-06T01:51:20;3.30;97.80
3194;DHT22;1608;50.860;13.466;2023-04-06T01:53:47;3.40;97.80
3194;DHT22;1608;50.860;13.466;2023-04-06T01:56:14;3.40;97.80
3194;DHT22;1608;50.860;13.466;2023-04-06T01:58:43;3.40;97.80
3194;DHT22;1608;50.860;13.466;2023-04-06T02:01:10;3.40;97.70
3194;DHT22;1608;50.860;13.466;2023-04-06T02:03:37;3.30;97.80
3194;DHT22;1608;50.860;13.466;2023-04-06T02:06:04;3.30;97.80
3194;DHT22;1608;50.860;13.466;2023-04-06T02:08:31;3.20;97.90
3194;DHT22;1608;50.860;13.466;2023-04-06T02:10:58;3.10;97.80
3194;DHT22;1608;50.860;13.466;2023-04-06T02:13:24;3.10;97.90
3194;DHT22;1608;50.860;13.466;2023-04-06T02:15:53;2.90;98.00
3194;DHT22;1608;50.860;13.466;2023-04-06T02:18:20;2.90;98.10
3194;DHT22;1608;50.860;13.466;2023-04-06T02:20:47;2.80;98.10
3194;DHT22;1608;50.860;13.466;2023-04-06T02:23:14;2.70;98.30
3194;DHT22;1608;50.860;13.466;2023-04-06T02:25:41;2.70;98.40
3194;DHT22;1608;50.860;13.466;2023-04-06T02:28:08;2.70;98.50
3194;DHT22;1608;50.860;13.466;2023-04-06T02:30:35;2.60;98.60
3194;DHT22;1608;50.860;13.466;2023-04-06T02:33:04;2.60;98.60
3194;DHT22;1608;50.860;13.466;2023-04-06T02:35:31;2.60;98.60
3194;DHT22;1608;50.860;13.466;2023-04-06T02:37:58;2.60;98.80
3194;DHT22;1608;50.860;13.466;2023-04-06T02:40:24;2.60;98.80
3194;DHT22;1608;50.860;13.466;2023-04-06T02:42:51;2.60;98.80
3194;DHT22;1608;50.860;13.466;2023-04-06T02:45:18;2.50;98.80
3194;DHT22;1608;50.860;13.466;2023-04-06T02:47:45;2.40;98.90
3194;DHT22;1608;50.860;13.466;2023-04-06T02:50:14;2.40;98.90
3194;DHT22;1608;50.860;13.466;2023-04-06T02:52:41;2.40;99.10
3194;DHT22;1608;50.860;13.466;2023-04-06T02:55:08;2.40;99.10
3194;DHT22;1608;50.860;13.466;2023-04-06T02:57:35;2.40;99.20
3194;DHT22;1608;50.860;13.466;2023-04-06T03:00:03;2.40;99.40
3194;DHT22;1608;50.860;13.466;2023-04-06T03:02:30;2.40;99.40
3194;DHT22;1608;50.860;13.466;2023-04-06T03:04:56;2.50;99.50
3194;DHT22;1608;50.860;13.466;2023-04-06T03:07:25;2.50;99.50
3194;DHT22;1608;50.860;13.466;2023-04-06T03:09:52;2.50;99.60
3194;DHT22;1608;50.860;13.466;2023-04-06T03:12:18;2.60;99.70
3194;DHT22;1608;50.860;13.466;2023-04-06T03:14:45;2.70;99.70
3194;DHT22;1608;50.860;13.466;2023-04-06T03:17:12;2.80;99.60
3194;DHT22;1608;50.860;13.466;2023-04-06T03:19:39;2.90;99.60
3194;DHT22;1608;50.860;13.466;2023-04-06T03:22:06;2.90;99.40
3194;DHT22;1608;50.860;13.466;2023-04-06T03:24:34;3.00;99.50
3194;DHT22;1608;50.860;13.466;2023-04-06T03:27:01;3.10;99.50
3194;DHT22;1608;50.860;13.466;2023-04-06T03:29:28;3.20;99.50
3194;DHT22;1608;50.860;13.466;2023-04-06T03:31:55;3.20;99.50
3194;DHT22;1608;50.860;13.466;2023-04-06T03:34:22;3.20;99.30
3194;DHT22;1608;50.860;13.466;2023-04-06T03:36:49;3.20;99.40
3194;DHT22;1608;50.860;13.466;2023-04-06T03:39:16;3.30;99.20
3194;DHT22;1608;50.860;13.466;2023-04-06T03:41:44;3.30;99.40
3194;DHT22;1608;50.860;13.466;2023-04-06T03:44:11;3.40;99.30
3194;DHT22;1608;50.860;13.466;2023-04-06T03:46:38;3.50;99.20
3194;DHT22;1608;50.860;13.466;2023-04-06T03:49:05;3.50;99.10
3194;DHT22;1608;50.860;13.466;2023-04-06T03:51:32;3.40;98.90
3194;DHT22;1608;50.860;13.466;2023-04-06T03:53:59;3.40;99.10
3194;DHT22;1608;50.860;13.466;2023-04-06T03:56:26;3.40;99.00
3194;DHT22;1608;50.860;13.466;2023-04-06T03:58:55;5.20;99.80
3194;DHT22;1608;50.860;13.466;2023-04-06T04:01:21;3.40;98.90
3194;DHT22;1608;50.860;13.466;2023-04-06T04:03:48;3.50;98.80
3194;DHT22;1608;50.860;13.466;2023-04-06T04:06:15;3.50;98.90
3194;DHT22;1608;50.860;13.466;2023-04-06T04:08:42;3.50;98.60
3194;DHT22;1608;50.860;13.466;2023-04-06T04:11:09;3.60;98.50
3194;DHT22;1608;50.860;13.466;2023-04-06T04:13:36;3.60;98.30
3194;DHT22;1608;50.860;13.466;2023-04-06T04:16:04;3.50;98.50
3194;DHT22;1608;50.860;13.466;2023-04-06T04:18:31;3.50;98.60
3194;DHT22;1608;50.860;13.466;2023-04-06T04:20:58;3.50;98.60
3194;DHT22;1608;50.860;13.466;2023-04-06T04:23:25;3.50;98.70
3194;DHT22;1608;50.860;13.466;2023-04-06T04:25:52;3.50;98.60
3194;DHT22;1608;50.860;13.466;2023-04-06T04:28:19;3.60;98.60
3194;DHT22;1608;50.860;13.466;2023-04-06T04:30:46;3.50;98.50
3194;DHT22;1608;50.860;13.466;2023-04-06T04:33:14;3.50;98.60
3194;DHT22;1608;50.860;13.466;2023-04-06T04:35:41;3.50;98.50
3194;DHT22;1608;50.860;13.466;2023-04-06T04:38:08;3.50;98.90
3194;DHT22;1608;50.860;13.466;2023-04-06T04:40:35;3.60;98.60
3194;DHT22;1608;50.860;13.466;2023-04-06T04:43:02;3.60;98.60
3194;DHT22;1608;50.860;13.466;2023-04-06T04:45:29;3.60;98.60
3194;DHT22;1608;50.860;13.466;2023-04-06T04:47:56;3.70;98.60
3194;DHT22;1608;50.860;13.466;2023-04-06T04:50:24;3.80;98.60
3194;DHT22;1608;50.860;13.466;2023-04-06T04:52:51;3.80;98.40
3194;DHT22;1608;50.860;13.466;2023-04-06T04:55:17;3.70;98.30
3194;DHT22;1608;50.860;13.466;2023-04-06T04:57:44;3.60;98.60
3194;DHT22;1608;50.860;13.466;2023-04-06T05:00:12;3.70;99.00
3194;DHT22;1608;50.860;13.466;2023-04-06T05:02:40;3.80;99.10
3194;DHT22;1608;50.860;13.466;2023-04-06T05:05:07;4.00;98.90
3194;DHT22;1608;50.860;13.466;2023-04-06T05:07:36;4.30;98.90
3194;DHT22;1608;50.860;13.466;2023-04-06T05:10:03;4.70;98.80
3194;DHT22;1608;50.860;13.466;2023-04-06T05:12:30;5.00;98.30
3194;DHT22;1608;50.860;13.466;2023-04-06T05:14:57;5.20;97.90
3194;DHT22;1608;50.860;13.466;2023-04-06T05:17:24;5.20;97.30
3194;DHT22;1608;50.860;13.466;2023-04-06T05:19:51;5.20;97.50
3194;DHT22;1608;50.860;13.466;2023-04-06T05:22:18;5.10;97.10
3194;DHT22;1608;50.860;13.466;2023-04-06T05:24:46;5.10;96.90
3194;DHT22;1608;50.860;13.466;2023-04-06T05:27:13;5.10;97.00
3194;DHT22;1608;50.860;13.466;2023-04-06T05:29:40;4.90;96.90
3194;DHT22;1608;50.860;13.466;2023-04-06T05:32:07;5.00;96.80
3194;DHT22;1608;50.860;13.466;2023-04-06T05:34:34;5.00;96.90
3194;DHT22;1608;50.860;13.466;2023-04-06T05:37:01;5.20;96.90
3194;DHT22;1608;50.860;13.466;2023-04-06T05:39:28;5.30;96.60
3194;DHT22;1608;50.860;13.466;2023-04-06T05:41:57;5.50;96.20
3194;DHT22;1608;50.860;13.466;2023-04-06T05:44:23;5.70;96.20
3194;DHT22;1608;50.860;13.466;2023-04-06T05:46:50;5.80;95.60
3194;DHT22;1608;50.860;13.466;2023-04-06T05:49:17;6.00;95.40
3194;DHT22;1608;50.860;13.466;2023-04-06T05:51:44;6.10;94.70
3194;DHT22;1608;50.860;13.466;2023-04-06T05:54:11;6.10;94.30
3194;DHT22;1608;50.860;13.466;2023-04-06T05:56:38;6.10;93.80
3194;DHT22;1608;50.860;13.466;2023-04-06T05:59:06;6.30;93.80
3194;DHT22;1608;50.860;13.466;2023-04-06T06:01:33;6.20;92.80
3194;DHT22;1608;50.860;13.466;2023-04-06T06:04:01;6.30;93.00
3194;DHT22;1608;50.860;13.466;2023-04-06T06:06:28;6.30;93.00
3194;DHT22;1608;50.860;13.466;2023-04-06T06:08:55;6.50;92.80
3194;DHT22;1608;50.860;13.466;2023-04-06T06:11:24;6.80;91.60
3194;DHT22;1608;50.860;13.466;2023-04-06T06:13:51;6.90;91.60
3194;DHT22;1608;50.860;13.466;2023-04-06T06:16:19;7.00;91.20
3194;DHT22;1608;50.860;13.466;2023-04-06T06:18:46;6.90;90.80
3194;DHT22;1608;50.860;13.466;2023-04-06T06:21:13;6.80;89.50
3194;DHT22;1608;50.860;13.466;2023-04-06T06:23:42;6.70;90.00
3194;DHT22;1608;50.860;13.466;2023-04-06T06:26:09;6.50;90.30
3194;DHT22;1608;50.860;13.466;2023-04-06T06:28:36;6.50;90.60
3194;DHT22;1608;50.860;13.466;2023-04-06T06:31:03;6.70;90.20
3194;DHT22;1608;50.860;13.466;2023-04-06T06:33:31;6.70;90.30
3194;DHT22;1608;50.860;13.466;2023-04-06T06:35:58;6.90;90.40
3194;DHT22;1608;50.860;13.466;2023-04-06T06:38:25;7.30;89.60
3194;DHT22;1608;50.860;13.466;2023-04-06T06:40:52;7.50;88.00
3194;DHT22;1608;50.860;13.466;2023-04-06T06:43:19;7.60;87.50
3194;DHT22;1608;50.860;13.466;2023-04-06T06:45:46;7.70;86.70
3194;DHT22;1608;50.860;13.466;2023-04-06T06:48:13;7.80;86.40
3194;DHT22;1608;50.860;13.466;2023-04-06T06:50:41;8.10;84.10
3194;DHT22;1608;50.860;13.466;2023-04-06T06:53:08;8.30;84.00
3194;DHT22;1608;50.860;13.466;2023-04-06T06:55:35;8.50;82.20
3194;DHT22;1608;50.860;13.466;2023-04-06T06:58:02;8.60;81.80
3194;DHT22;1608;50.860;13.466;2023-04-06T07:00:28;8.50;81.60
3194;DHT22;1608;50.860;13.466;2023-04-06T07:02:55;8.60;81.60
3194;DHT22;1608;50.860;13.466;2023-04-06T07:05:22;8.50;82.20
3194;DHT22;1608;50.860;13.466;2023-04-06T07:07:50;8.60;81.20
3194;DHT22;1608;50.860;13.466;2023-04-06T07:10:17;10.20;78.20
3194;DHT22;1608;50.860;13.466;2023-04-06T07:12:44;10.70;77.70
3194;DHT22;1608;50.860;13.466;2023-04-06T07:15:11;12.30;74.10
3194;DHT22;1608;50.860;13.466;2023-04-06T07:17:38;13.70;70.30
3194;DHT22;1608;50.860;13.466;2023-04-06T07:20:07;15.20;55.40
3194;DHT22;1608;50.860;13.466;2023-04-06T07:22:34;15.40;57.20
3194;DHT22;1608;50.860;13.466;2023-04-06T07:25:03;16.10;55.60
3194;DHT22;1608;50.860;13.466;2023-04-06T07:27:30;16.60;50.50
3194;DHT22;1608;50.860;13.466;2023-04-06T07:29:57;17.40;49.80
3194;DHT22;1608;50.860;13.466;2023-04-06T07:32:23;17.50;50.10
3194;DHT22;1608;50.860;13.466;2023-04-06T07:34:50;18.00;47.50
3194;DHT22;1608;50.860;13.466;2023-04-06T07:37:17;18.00;45.70
3194;DHT22;1608;50.860;13.466;2023-04-06T07:39:44;19.00;44.80
3194;DHT22;1608;50.860;13.466;2023-04-06T07:42:13;19.00;44.90
3194;DHT22;1608;50.860;13.466;2023-04-06T07:44:40;19.20;43.30
3194;DHT22;1608;50.860;13.466;2023-04-06T07:47:07;19.40;41.70
3194;DHT22;1608;50.860;13.466;2023-04-06T07:49:34;19.40;41.70
3194;DHT22;1608;50.860;13.466;2023-04-06T07:52:00;19.80;40.60
3194;DHT22;1608;50.860;13.466;2023-04-06T07:54:28;20.20;39.60
3194;DHT22;1608;50.860;13.466;2023-04-06T07:56:55;20.60;38.60
3194;DHT22;1608;50.860;13.466;2023-04-06T07:59:23;20.90;39.50
3194;DHT22;1608;50.860;13.466;2023-04-06T08:01:50;21.50;38.50
3194;DHT22;1608;50.860;13.466;2023-04-06T08:04:17;22.10;38.60
3194;DHT22;1608;50.860;13.466;2023-04-06T08:06:44;22.50;36.40
3194;DHT22;1608;50.860;13.466;2023-04-06T08:09:11;22.00;36.30
3194;DHT22;1608;50.860;13.466;2023-04-06T08:11:38;21.80;35.70
3194;DHT22;1608;50.860;13.466;2023-04-06T08:14:05;22.10;36.10
3194;DHT22;1608;50.860;13.466;2023-04-06T08:16:33;22.50;36.10
3194;DHT22;1608;50.860;13.466;2023-04-06T08:19:00;23.00;34.90
3194;DHT22;1608;50.860;13.466;2023-04-06T08:21:27;22.60;34.40
3194;DHT22;1608;50.860;13.466;2023-04-06T08:23:54;22.50;35.80
3194;DHT22;1608;50.860;13.466;2023-04-06T08:26:21;22.60;36.30
3194;DHT22;1608;50.860;13.466;2023-04-06T08:28:47;22.40;36.00
3194;DHT22;1608;50.860;13.466;2023-04-06T08:31:14;22.40;36.70
3194;DHT22;1608;50.860;13.466;2023-04-06T08:33:43;22.20;35.60
3194;DHT22;1608;50.860;13.466;2023-04-06T08:36:11;21.70;35.60
3194;DHT22;1608;50.860;13.466;2023-04-06T08:38:38;21.00;35.20
3194;DHT22;1608;50.860;13.466;2023-04-06T08:41:09;19.90;37.00
3194;DHT22;1608;50.860;13.466;2023-04-06T08:43:43;19.40;38.20
3194;DHT22;1608;50.860;13.466;2023-04-06T08:46:11;19.00;39.00
3194;DHT22;1608;50.860;13.466;2023-04-06T08:48:38;18.30;39.50
3194;DHT22;1608;50.860;13.466;2023-04-06T08:51:08;17.80;39.30
3194;DHT22;1608;50.860;13.466;2023-04-06T08:53:35;17.60;40.80
3194;DHT22;1608;50.860;13.466;2023-04-06T08:56:02;17.30;40.40
3194;DHT22;1608;50.860;13.466;2023-04-06T08:58:37;16.80;41.70
3194;DHT22;1608;50.860;13.466;2023-04-06T09:01:07;16.40;41.80
3194;DHT22;1608;50.860;13.466;2023-04-06T09:03:37;16.20;42.10
3194;DHT22;1608;50.860;13.466;2023-04-06T09:06:05;16.00;42.60
3194;DHT22;1608;50.860;13.466;2023-04-06T09:08:34;15.80;43.30
3194;DHT22;1608;50.860;13.466;2023-04-06T09:11:01;15.70;43.30
3194;DHT22;1608;50.860;13.466;2023-04-06T09:13:28;15.60;43.50
3194;DHT22;1608;50.860;13.466;2023-04-06T09:15:59;14.50;40.70
3194;DHT22;1608;50.860;13.466;2023-04-06T09:18:30;13.60;41.90
3194;DHT22;1608;50.860;13.466;2023-04-06T09:20:59;13.70;44.20
3194;DHT22;1608;50.860;13.466;2023-04-06T09:23:27;13.80;45.30
3194;DHT22;1608;50.860;13.466;2023-04-06T09:26:06;13.90;45.60
3194;DHT22;1608;50.860;13.466;2023-04-06T09:28:44;13.60;43.10
3194;DHT22;1608;50.860;13.466;2023-04-06T09:31:11;13.30;42.80
3194;DHT22;1608;50.860;13.466;2023-04-06T09:33:38;13.30;44.40
3194;DHT22;1608;50.860;13.466;2023-04-06T09:36:06;13.70;45.70
3194;DHT22;1608;50.860;13.466;2023-04-06T09:38:36;14.00;45.60
3194;DHT22;1608;50.860;13.466;2023-04-06T09:41:05;14.20;44.50
3194;DHT22;1608;50.860;13.466;2023-04-06T09:43:31;14.40;45.70
3194;DHT22;1608;50.860;13.466;2023-04-06T09:46:00;14.80;45.30
3194;DHT22;1608;50.860;13.466;2023-04-06T09:48:31;15.10;45.10
3194;DHT22;1608;50.860;13.466;2023-04-06T09:51:01;15.00;43.10
3194;DHT22;1608;50.860;13.466;2023-04-06T09:53:31;14.70;44.50
3194;DHT22;1608;50.860;13.466;2023-04-06T09:56:02;14.90;44.10
3194;DHT22;1608;50.860;13.466;2023-04-06T09:58:34;14.20;42.30
3194;DHT22;1608;50.860;13.466;2023-04-06T10:01:06;12.80;43.30
3194;DHT22;1608;50.860;13.466;2023-04-06T10:03:40;12.50;44.70
3194;DHT22;1608;50.860;13.466;2023-04-06T10:06:13;12.80;45.40
3194;DHT22;1608;50.860;13.466;2023-04-06T10:08:40;13.20;45.70
3194;DHT22;1608;50.860;13.466;2023-04-06T10:11:09;13.40;44.20
3194;DHT22;1608;50.860;13.466;2023-04-06T10:13:37;13.30;44.50
3194;DHT22;1608;50.860;13.466;2023-04-06T10:16:05;13.40;44.40
3194;DHT22;1608;50.860;13.466;2023-04-06T10:18:32;13.30;43.80
3194;DHT22;1608;50.860;13.466;2023-04-06T10:21:06;13.00;43.30
3194;DHT22;1608;50.860;13.466;2023-04-06T10:23:35;13.00;44.00
3194;DHT22;1608;50.860;13.466;2023-04-06T10:26:03;12.80;43.70
3194;DHT22;1608;50.860;13.466;2023-04-06T10:28:32;12.70;44.20
3194;DHT22;1608;50.860;13.466;2023-04-06T10:31:02;12.60;43.30
3194;DHT22;1608;50.860;13.466;2023-04-06T10:33:31;12.60;43.70
3194;DHT22;1608;50.860;13.466;2023-04-06T10:35:58;12.60;44.10
3194;DHT22;1608;50.860;13.466;2023-04-06T10:38:34;12.60;44.10
3194;DHT22;1608;50.860;13.466;2023-04-06T10:41:04;12.70;44.00
3194;DHT22;1608;50.860;13.466;2023-04-06T10:43:33;12.80;44.60
3194;DHT22;1608;50.860;13.466;2023-04-06T10:46:04;12.80;45.20
3194;DHT22;1608;50.860;13.466;2023-04-06T10:48:37;12.90;45.90
3194;DHT22;1608;50.860;13.466;2023-04-06T10:51:08;13.50;45.20
3194;DHT22;1608;50.860;13.466;2023-04-06T10:53:36;13.60;46.00
3194;DHT22;1608;50.860;13.466;2023-04-06T10:56:03;13.80;46.10
3194;DHT22;1608;50.860;13.466;2023-04-06T10:58:30;13.70;44.40
3194;DHT22;1608;50.860;13.466;2023-04-06T11:00:57;13.30;42.60
3194;DHT22;1608;50.860;13.466;2023-04-06T11:03:26;13.20;43.60
3194;DHT22;1608;50.860;13.466;2023-04-06T11:05:54;12.80;42.80
3194;DHT22;1608;50.860;13.466;2023-04-06T11:08:29;12.70;43.90
3194;DHT22;1608;50.860;13.466;2023-04-06T11:11:06;12.50;44.30
3194;DHT22;1608;50.860;13.466;2023-04-06T11:13:38;12.40;45.50
3194;DHT22;1608;50.860;13.466;2023-04-06T11:16:05;12.40;47.20
3194;DHT22;1608;50.860;13.466;2023-04-06T11:18:34;12.40;48.00
3194;DHT22;1608;50.860;13.466;2023-04-06T11:21:01;12.60;48.00
3194;DHT22;1608;50.860;13.466;2023-04-06T11:23:28;12.70;49.30
3194;DHT22;1608;50.860;13.466;2023-04-06T11:25:54;12.90;48.90
3194;DHT22;1608;50.860;13.466;2023-04-06T11:28:21;13.00;48.70
3194;DHT22;1608;50.860;13.466;2023-04-06T11:30:48;13.00;48.10
3194;DHT22;1608;50.860;13.466;2023-04-06T11:33:20;12.90;48.00
3194;DHT22;1608;50.860;13.466;2023-04-06T11:35:49;12.90;46.80
3194;DHT22;1608;50.860;13.466;2023-04-06T11:38:18;12.90;46.70
3194;DHT22;1608;50.860;13.466;2023-04-06T11:40:46;12.70;45.00
3194;DHT22;1608;50.860;13.466;2023-04-06T11:43:13;12.70;48.20
3194;DHT22;1608;50.860;13.466;2023-04-06T11:45:42;12.70;48.20
3194;DHT22;1608;50.860;13.466;2023-04-06T11:48:18;12.70;47.60
3194;DHT22;1608;50.860;13.466;2023-04-06T11:50:46;12.60;47.10
3194;DHT22;1608;50.860;13.466;2023-04-06T11:53:15;12.60;46.80
3194;DHT22;1608;50.860;13.466;2023-04-06T11:55:42;12.50;47.00
3194;DHT22;1608;50.860;13.466;2023-04-06T11:58:12;12.50;48.30
3194;DHT22;1608;50.860;13.466;2023-04-06T12:00:39;12.50;48.00
3194;DHT22;1608;50.860;13.466;2023-04-06T12:03:10;12.50;47.20
3194;DHT22;1608;50.860;13.466;2023-04-06T12:05:37;12.50;46.30
3194;DHT22;1608;50.860;13.466;2023-04-06T12:08:04;12.40;48.20
3194;DHT22;1608;50.860;13.466;2023-04-06T12:10:32;12.40;48.00
3194;DHT22;1608;50.860;13.466;2023-04-06T12:12:59;12.40;49.20
3194;DHT22;1608;50.860;13.466;2023-04-06T12:15:26;12.50;48.90
3194;DHT22;1608;50.860;13.466;2023-04-06T12:17:53;12.60;48.10
3194;DHT22;1608;50.860;13.466;2023-04-06T12:20:20;12.70;49.30
3194;DHT22;1608;50.860;13.466;2023-04-06T12:22:47;12.80;48.00
3194;DHT22;1608;50.860;13.466;2023-04-06T12:25:13;12.70;47.10
3194;DHT22;1608;50.860;13.466;2023-04-06T12:27:42;12.50;46.00
3194;DHT22;1608;50.860;13.466;2023-04-06T12:30:09;11.40;45.30
3194;DHT22;1608;50.860;13.466;2023-04-06T12:32:36;11.40;45.60
3194;DHT22;1608;50.860;13.466;2023-04-06T12:35:03;11.50;46.60
3194;DHT22;1608;50.860;13.466;2023-04-06T12:37:30;11.50;47.20
3194;DHT22;1608;50.860;13.466;2023-04-06T12:39:57;11.50;47.60
3194;DHT22;1608;50.860;13.466;2023-04-06T12:42:25;11.10;47.60
3194;DHT22;1608;50.860;13.466;2023-04-06T12:44:54;10.80;47.00
3194;DHT22;1608;50.860;13.466;2023-04-06T12:47:21;10.50;47.60
3194;DHT22;1608;50.860;13.466;2023-04-06T12:49:48;10.60;48.20
3194;DHT22;1608;50.860;13.466;2023-04-06T12:52:15;10.50;47.80
3194;DHT22;1608;50.860;13.466;2023-04-06T12:54:42;10.50;48.70
3194;DHT22;1608;50.860;13.466;2023-04-06T12:57:10;10.30;48.10
3194;DHT22;1608;50.860;13.466;2023-04-06T12:59:37;10.10;48.20
3194;DHT22;1608;50.860;13.466;2023-04-06T13:02:05;9.80;49.00
3194;DHT22;1608;50.860;13.466;2023-04-06T13:04:32;10.00;49.20
3194;DHT22;1608;50.860;13.466;2023-04-06T13:06:59;10.20;51.10
3194;DHT22;1608;50.860;13.466;2023-04-06T13:09:26;10.30;48.90
3194;DHT22;1608;50.860;13.466;2023-04-06T13:11:53;10.40;48.80
3194;DHT22;1608;50.860;13.466;2023-04-06T13:14:21;10.60;48.90
3194;DHT22;1608;50.860;13.466;2023-04-06T13:16:48;10.90;49.10
3194;DHT22;1608;50.860;13.466;2023-04-06T13:19:16;11.00;50.10
3194;DHT22;1608;50.860;13.466;2023-04-06T13:21:43;10.90;48.50
3194;DHT22;1608;50.860;13.466;2023-04-06T13:24:10;10.70;51.00
3194;DHT22;1608;50.860;13.466;2023-04-06T13:26:37;10.90;52.00
3194;DHT22;1608;50.860;13.466;2023-04-06T13:29:04;11.10;52.20
3194;DHT22;1608;50.860;13.466;2023-04-06T13:31:31;11.20;52.70
3194;DHT22;1608;50.860;13.466;2023-04-06T13:33:58;11.20;50.70
3194;DHT22;1608;50.860;13.466;2023-04-06T13:36:26;11.20;49.30
3194;DHT22;1608;50.860;13.466;2023-04-06T13:38:53;11.00;49.20
3194;DHT22;1608;50.860;13.466;2023-04-06T13:41:21;11.20;50.30
3194;DHT22;1608;50.860;13.466;2023-04-06T13:43:48;11.30;52.20
3194;DHT22;1608;50.860;13.466;2023-04-06T13:46:15;11.40;50.90
3194;DHT22;1608;50.860;13.466;2023-04-06T13:48:42;11.50;49.80
3194;DHT22;1608;50.860;13.466;2023-04-06T13:51:10;11.50;49.40
3194;DHT22;1608;50.860;13.466;2023-04-06T13:53:38;11.50;49.70
3194;DHT22;1608;50.860;13.466;2023-04-06T13:56:06;11.60;50.30
3194;DHT22;1608;50.860;13.466;2023-04-06T13:58:33;11.60;50.20
3194;DHT22;1608;50.860;13.466;2023-04-06T14:01:04;11.60;50.30
3194;DHT22;1608;50.860;13.466;2023-04-06T14:03:32;11.50;51.00
3194;DHT22;1608;50.860;13.466;2023-04-06T14:05:59;11.50;49.90
3194;DHT22;1608;50.860;13.466;2023-04-06T14:08:25;11.60;49.30
3194;DHT22;1608;50.860;13.466;2023-04-06T14:10:54;11.60;48.90
3194;DHT22;1608;50.860;13.466;2023-04-06T14:13:21;11.50;48.70
3194;DHT22;1608;50.860;13.466;2023-04-06T14:15:53;11.20;48.90
3194;DHT22;1608;50.860;13.466;2023-04-06T14:18:20;10.70;49.10
3194;DHT22;1608;50.860;13.466;2023-04-06T14:20:53;10.50;49.50
3194;DHT22;1608;50.860;13.466;2023-04-06T14:23:20;10.40;49.70
3194;DHT22;1608;50.860;13.466;2023-04-06T14:25:47;10.50;50.30
3194;DHT22;1608;50.860;13.466;2023-04-06T14:28:16;10.40;49.90
3194;DHT22;1608;50.860;13.466;2023-04-06T14:30:42;10.50;49.70
3194;DHT22;1608;50.860;13.466;2023-04-06T14:33:09;10.70;50.50
3194;DHT22;1608;50.860;13.466;2023-04-06T14:35:38;10.80;51.10
3194;DHT22;1608;50.860;13.466;2023-04-06T14:38:05;10.70;49.30
3194;DHT22;1608;50.860;13.466;2023-04-06T14:40:34;10.80;49.30
3194;DHT22;1608;50.860;13.466;2023-04-06T14:43:02;10.80;50.00
3194;DHT22;1608;50.860;13.466;2023-04-06T14:45:33;10.70;51.10
3194;DHT22;1608;50.860;13.466;2023-04-06T14:48:00;10.50;49.20
3194;DHT22;1608;50.860;13.466;2023-04-06T14:50:27;10.60;50.30
3194;DHT22;1608;50.860;13.466;2023-04-06T14:52:54;10.80;49.90
3194;DHT22;1608;50.860;13.466;2023-04-06T14:55:21;10.90;50.60
3194;DHT22;1608;50.860;13.466;2023-04-06T14:57:48;10.70;50.90
3194;DHT22;1608;50.860;13.466;2023-04-06T15:00:15;10.60;50.50
3194;DHT22;1608;50.860;13.466;2023-04-06T15:02:43;10.60;50.60
3194;DHT22;1608;50.860;13.466;2023-04-06T15:05:10;10.60;52.00
3194;DHT22;1608;50.860;13.466;2023-04-06T15:07:37;10.50;49.90
3194;DHT22;1608;50.860;13.466;2023-04-06T15:10:05;10.50;51.20
3194;DHT22;1608;50.860;13.466;2023-04-06T15:12:32;10.70;51.90
3194;DHT22;1608;50.860;13.466;2023-04-06T15:14:59;10.80;51.80
3194;DHT22;1608;50.860;13.466;2023-04-06T15:17:26;10.90;52.50
3194;DHT22;1608;50.860;13.466;2023-04-06T15:19:54;11.00;52.10
3194;DHT22;1608;50.860;13.466;2023-04-06T15:22:21;11.10;51.90
3194;DHT22;1608;50.860;13.466;2023-04-06T15:24:48;11.10;51.20
3194;DHT22;1608;50.860;13.466;2023-04-06T15:27:15;11.10;51.80
3194;DHT22;1608;50.860;13.466;2023-04-06T15:29:42;11.10;51.10
3194;DHT22;1608;50.860;13.466;2023-04-06T15:32:09;11.20;51.10
3194;DHT22;1608;50.860;13.466;2023-04-06T15:34:36;11.20;51.10
3194;DHT22;1608;50.860;13.466;2023-04-06T15:37:04;11.20;52.40
3194;DHT22;1608;50.860;13.466;2023-04-06T15:39:31;11.20;51.60
3194;DHT22;1608;50.860;13.466;2023-04-06T15:41:59;11.00;50.30
3194;DHT22;1608;50.860;13.466;2023-04-06T15:44:26;10.60;49.00
3194;DHT22;1608;50.860;13.466;2023-04-06T15:46:53;10.70;50.20
3194;DHT22;1608;50.860;13.466;2023-04-06T15:49:20;10.70;50.20
3194;DHT22;1608;50.860;13.466;2023-04-06T15:51:47;10.60;49.70
3194;DHT22;1608;50.860;13.466;2023-04-06T15:54:15;10.60;49.30